Time;durP1;ratioP1;P1;durP2;ratioP2;P2;SDS_P1;SDS_P2;PMS_P1;PMS_P2;Temp;Humidity;BMP_temperature;BMP_pressure;BME280_temperature;BME280_humidity;BME280_pressure;Samples;Min_cycle;Max_cycle;Signal;HPM_P1;HPM_P2
2022/12/09 00:01:13;;;;;;;31.65;16.70;;;;;;;5.91;80.53;95046.34;5035145;28;20103;-78
2022/12/09 00:03:38;;;;;;;31.85;15.82;;;;;;;5.83;80.65;95037.84;5053737;28;20037;-79
2022/12/09 00:06:09;;;;;;;30.30;15.63;;;;;;;5.81;81.25;95116.22;5053065;28;20040;-79
2022/12/09 00:08:35;;;;;;;35.90;16.67;;;;;;;5.12;85.22;95099.25;5053771;28;20048;-79
2022/12/09 00:11:00;;;;;;;34.80;17.48;;;;;;;5.21;84.66;95057.56;5035393;28;20036;-79
2022/12/09 00:13:26;;;;;;;31.92;16.10;;;;;;;5.15;83.58;95017.28;5035764;28;20498;-79
2022/12/09 00:15:51;;;;;;;35.33;16.75;;;;;;;5.73;82.61;95105.31;5053208;28;20055;-79
2022/12/09 00:18:17;;;;;;;34.83;16.55;;;;;;;4.73;82.80;94955.75;5052374;28;20045;-79
2022/12/09 00:20:42;;;;;;;35.50;17.02;;;;;;;5.65;82.95;95100.50;5053125;28;20059;-79
2022/12/09 00:23:09;;;;;;;32.63;15.85;;;;;;;5.35;82.37;95059.59;5034852;28;20057;-79
2022/12/09 00:25:34;;;;;;;32.42;16.10;;;;;;;5.25;82.89;95056.06;5034249;28;20028;-79
2022/12/09 00:28:00;;;;;;;32.08;15.77;;;;;;;4.93;82.52;94993.59;5034947;28;20033;-79
2022/12/09 00:30:25;;;;;;;34.33;17.17;;;;;;;5.48;82.57;95058.47;5053071;28;20024;-79
2022/12/09 00:32:51;;;;;;;31.38;16.50;;;;;;;5.88;82.72;95125.78;5052758;28;20483;-79
2022/12/09 00:35:16;;;;;;;40.67;16.73;;;;;;;5.93;82.92;95137.22;5052774;28;20461;-79
2022/12/09 00:37:41;;;;;;;37.17;17.52;;;;;;;5.65;82.18;95087.34;5053361;28;20107;-79
2022/12/09 00:40:07;;;;;;;32.92;15.90;;;;;;;5.54;82.50;95062.75;5034611;28;20033;-79
2022/12/09 00:42:33;;;;;;;30.33;15.43;;;;;;;6.01;82.09;95128.09;5035333;28;20838;-79
2022/12/09 00:44:58;;;;;;;34.53;16.10;;;;;;;5.66;82.47;95081.03;5020831;28;20036;-79
2022/12/09 00:47:24;;;;;;;32.50;16.50;;;;;;;5.96;82.37;95126.16;5046959;28;20407;-79
2022/12/09 00:49:49;;;;;;;35.95;15.80;;;;;;;5.44;82.32;95060.00;5035283;28;20118;-79
2022/12/09 00:52:14;;;;;;;32.78;15.73;;;;;;;5.03;82.17;94980.56;5034858;28;20414;-79
2022/12/09 00:54:40;;;;;;;30.75;15.55;;;;;;;5.64;83.12;95083.13;5017108;28;20029;-79
2022/12/09 00:57:05;;;;;;;33.97;16.23;;;;;;;5.77;83.04;95080.94;5034037;28;20488;-79
2022/12/09 00:59:30;;;;;;;30.85;15.95;;;;;;;5.78;82.83;95093.03;5033790;28;20037;-79
2022/12/09 01:01:56;;;;;;;37.13;16.35;;;;;;;5.74;82.42;95065.63;5017911;28;20041;-79
2022/12/09 01:04:23;;;;;;;36.20;16.40;;;;;;;5.37;82.60;95023.34;5036997;28;20068;-79
2022/12/09 01:06:49;;;;;;;36.75;16.20;;;;;;;6.09;82.49;95104.75;5056453;28;20099;-79
2022/12/09 01:09:15;;;;;;;29.80;16.48;;;;;;;6.08;82.44;95105.00;5038436;28;20025;-79
2022/12/09 01:11:41;;;;;;;30.50;15.35;;;;;;;5.93;83.12;95117.97;5056577;28;20412;-79
2022/12/09 01:14:06;;;;;;;28.75;14.93;;;;;;;5.63;83.82;95079.72;5047154;28;20039;-79
2022/12/09 01:16:33;;;;;;;33.42;15.27;;;;;;;5.93;83.25;95117.97;5046253;28;20116;-79
2022/12/09 01:19:01;;;;;;;30.92;14.82;;;;;;;5.28;83.34;95008.25;5056379;28;20106;-79
2022/12/09 01:21:28;;;;;;;34.90;16.38;;;;;;;5.79;84.12;95099.13;5056164;28;20040;-79
2022/12/09 01:23:53;;;;;;;29.92;16.25;;;;;;;5.41;84.12;95063.91;5038187;28;20032;-79
2022/12/09 01:26:19;;;;;;;33.40;16.17;;;;;;;5.26;83.52;95028.75;5038299;28;20029;-79
2022/12/09 01:28:45;;;;;;;30.58;15.25;;;;;;;5.51;83.68;95060.59;5037657;28;20501;-79
2022/12/09 01:31:16;;;;;;;29.98;15.65;;;;;;;5.94;83.22;95117.75;5038710;28;20044;-79
2022/12/09 01:33:42;;;;;;;31.33;15.25;;;;;;;5.98;83.93;95125.94;5056365;28;20037;-79
2022/12/09 01:36:12;;;;;;;30.02;15.27;;;;;;;5.93;83.90;95123.25;5055488;28;20112;-79
2022/12/09 01:38:38;;;;;;;29.42;15.95;;;;;;;4.98;83.59;94996.28;5055702;28;20021;-79
2022/12/09 01:41:04;;;;;;;33.70;16.40;;;;;;;5.87;84.18;95121.56;5037670;28;20041;-79
2022/12/09 01:43:29;;;;;;;35.45;16.55;;;;;;;5.73;83.43;95071.13;5047289;28;20040;-79
2022/12/09 01:45:55;;;;;;;29.85;16.45;;;;;;;4.93;82.99;94927.91;5046226;28;20033;-79
2022/12/09 01:48:25;;;;;;;32.95;15.93;;;;;;;6.08;82.56;95095.25;5037992;28;20136;-79
2022/12/09 01:50:55;;;;;;;32.00;15.13;;;;;;;5.99;83.10;95086.19;5038222;28;20033;-79
2022/12/09 01:53:25;;;;;;;29.75;14.73;;;;;;;5.49;82.86;95004.03;5056341;28;20060;-79
2022/12/09 01:55:56;;;;;;;30.35;15.05;;;;;;;5.53;82.30;95026.16;5037641;28;20055;-79
2022/12/09 01:58:22;;;;;;;34.53;16.13;;;;;;;6.16;82.88;95112.47;5037526;28;20055;-79
2022/12/09 02:00:48;;;;;;;37.58;16.70;;;;;;;6.19;82.37;95104.84;5033531;28;20047;-79
2022/12/09 02:03:14;;;;;;;31.50;15.25;;;;;;;6.18;82.82;95110.34;5035926;28;20033;-79
2022/12/09 02:05:39;;;;;;;30.70;14.77;;;;;;;5.71;82.30;95036.38;5017922;28;20029;-79
2022/12/09 02:08:10;;;;;;;33.38;16.75;;;;;;;5.98;83.34;95089.06;5052965;28;20104;-79
2022/12/09 02:10:46;;;;;;;34.20;16.63;;;;;;;5.64;82.89;95026.06;5055456;28;20147;-79
2022/12/09 02:13:22;;;;;;;35.10;16.67;;;;;;;5.95;82.95;95102.75;5039266;28;20029;-79
2022/12/09 02:16:00;;;;;;;35.00;16.48;;;;;;;5.27;83.31;94986.41;5023618;28;20037;-78
2022/12/09 02:18:45;;;;;;;33.70;16.02;;;;;;;5.91;83.79;95091.09;5014189;28;20512;-79
2022/12/09 02:21:20;;;;;;;35.85;16.27;;;;;;;5.40;83.92;95035.22;5016237;28;20034;-79
2022/12/09 02:23:56;;;;;;;31.63;16.20;;;;;;;4.94;83.89;94955.00;5014728;28;20420;-79
2022/12/09 02:26:40;;;;;;;33.33;16.13;;;;;;;5.22;83.24;94986.34;5019626;28;20492;-78
2022/12/09 02:29:21;;;;;;;37.15;16.77;;;;;;;5.94;83.14;95083.53;5033138;28;20111;-81
2022/12/09 02:32:09;;;;;;;32.30;16.85;;;;;;;6.13;83.19;95092.66;5032309;28;20029;-81
2022/12/09 02:34:41;;;;;;;30.33;15.45;;;;;;;6.19;82.98;95090.88;5015752;28;20042;-81
2022/12/09 02:37:18;;;;;;;36.50;17.48;;;;;;;5.98;82.92;95068.03;5032149;28;20041;-82
2022/12/09 02:40:00;;;;;;;34.08;16.60;;;;;;;5.95;83.05;95058.75;5030978;28;20037;-81
2022/12/09 02:42:31;;;;;;;32.05;16.38;;;;;;;5.49;82.87;94978.53;5030834;28;20029;-81
2022/12/09 02:44:59;;;;;;;30.83;16.85;;;;;;;5.86;82.61;95041.81;5032223;28;20034;-81
2022/12/09 02:47:28;;;;;;;46.97;17.23;;;;;;;5.99;83.05;95095.94;5030706;28;20045;-81
2022/12/09 02:49:59;;;;;;;38.17;19.00;;;;;;;5.71;83.67;95024.03;5031929;28;20353;-81
2022/12/09 02:52:26;;;;;;;32.97;17.25;;;;;;;5.56;83.01;94991.50;5030799;28;20099;-81
2022/12/09 02:54:52;;;;;;;31.15;16.73;;;;;;;6.26;82.50;95109.91;5031003;28;20041;-81
2022/12/09 02:57:25;;;;;;;35.03;16.63;;;;;;;6.15;82.70;95119.56;5030909;28;20037;-81
2022/12/09 02:59:50;;;;;;;33.47;15.43;;;;;;;5.44;83.19;95041.56;5031813;28;20040;-81
2022/12/09 03:02:30;;;;;;;36.13;15.80;;;;;;;6.02;82.56;95106.78;5030456;28;20407;-80
2022/12/09 03:05:18;;;;;;;31.42;15.43;;;;;;;6.12;82.79;95106.88;5032220;28;20037;-81
2022/12/09 03:08:02;;;;;;;34.85;16.75;;;;;;;6.07;83.01;95112.09;5024972;28;20523;-82
2022/12/09 03:10:31;;;;;;;35.10;16.15;;;;;;;6.10;82.75;95100.28;5010489;28;20045;-81
2022/12/09 03:13:09;;;;;;;29.75;16.20;;;;;;;6.18;82.37;95105.88;5010814;28;20034;-81
2022/12/09 03:15:37;;;;;;;30.25;14.90;;;;;;;5.56;83.02;95033.59;5010512;28;20185;-82
2022/12/09 03:18:09;;;;;;;31.70;15.18;;;;;;;5.34;82.98;95000.16;5025339;28;20053;-81
2022/12/09 03:20:36;;;;;;;;;;;;;;;6.17;83.15;95106.16;5015705;28;20514;-81
2022/12/09 03:23:04;;;;;;;36.97;15.50;;;;;;;5.61;83.12;95028.38;5051863;28;19920;-81
2022/12/09 03:25:37;;;;;;;40.80;17.05;;;;;;;6.23;82.41;95107.00;5033267;28;20032;-81
2022/12/09 03:28:05;;;;;;;33.25;15.75;;;;;;;5.73;82.68;95037.72;5050990;28;20036;-81
2022/12/09 03:30:34;;;;;;;32.22;16.33;;;;;;;5.42;82.49;94976.06;5033299;28;20028;-81
2022/12/09 03:33:02;;;;;;;31.40;15.35;;;;;;;6.12;82.30;95109.50;5051649;28;20044;-80
2022/12/09 03:35:35;;;;;;;35.65;14.73;;;;;;;5.52;83.05;95011.41;5051231;28;20036;-81
2022/12/09 03:38:04;;;;;;;34.95;15.40;;;;;;;5.93;83.15;95066.13;5051355;28;20059;-81
2022/12/09 03:40:31;;;;;;;33.20;15.35;;;;;;;5.69;82.97;95052.41;5050575;28;20461;-81
2022/12/09 03:43:07;;;;;;;27.33;15.80;;;;;;;5.93;82.84;95073.25;5050741;28;20044;-81
2022/12/09 03:45:33;;;;;;;36.58;16.67;;;;;;;5.04;83.93;94942.75;5032969;28;20495;-81
2022/12/09 03:48:00;;;;;;;36.60;16.27;;;;;;;5.92;83.84;95095.34;5032991;28;20091;-81
2022/12/09 03:50:30;;;;;;;30.33;15.35;;;;;;;5.72;82.99;95037.97;5050782;28;20031;-81
2022/12/09 03:53:08;;;;;;;34.63;14.88;;;;;;;5.65;83.18;95035.50;5051091;28;20119;-81
2022/12/09 03:55:46;;;;;;;30.65;16.10;;;;;;;6.10;83.32;95093.16;5032891;28;20474;-81
2022/12/09 03:58:14;;;;;;;31.00;15.65;;;;;;;6.15;82.91;95087.16;5016371;28;20041;-81
2022/12/09 04:00:40;;;;;;;32.20;16.40;;;;;;;5.61;82.99;95010.75;5050547;28;20056;-81
2022/12/09 04:03:06;;;;;;;35.33;16.90;;;;;;;5.93;83.19;95081.94;5032811;28;20486;-81
2022/12/09 04:05:32;;;;;;;31.05;15.50;;;;;;;6.01;83.40;95110.44;5050723;28;20087;-81
2022/12/09 04:07:57;;;;;;;30.40;16.08;;;;;;;5.58;84.14;95047.25;5032297;28;20040;-81
2022/12/09 04:10:23;;;;;;;32.83;16.20;;;;;;;6.09;83.84;95107.38;5050442;28;20048;-81
2022/12/09 04:12:49;;;;;;;34.58;15.95;;;;;;;5.49;83.66;94993.53;5050659;28;20033;-81
2022/12/09 04:15:14;;;;;;;35.17;15.65;;;;;;;6.11;83.17;95084.22;5032538;28;20560;-81
2022/12/09 04:17:40;;;;;;;30.73;16.52;;;;;;;5.59;83.27;94997.03;5032299;28;20107;-81
2022/12/09 04:20:06;;;;;;;37.65;17.92;;;;;;;6.12;83.11;95090.28;5049649;28;20083;-81
2022/12/09 04:22:31;;;;;;;34.97;16.73;;;;;;;5.70;83.00;95008.47;5032420;28;20025;-81
2022/12/09 04:24:56;;;;;;;39.55;16.23;;;;;;;6.17;82.47;95101.69;5032361;28;20037;-81
2022/12/09 04:27:22;;;;;;;30.45;14.63;;;;;;;6.13;83.56;95103.19;5050441;28;20110;-81
2022/12/09 04:29:47;;;;;;;29.75;16.13;;;;;;;6.09;83.00;95086.31;5032204;28;20454;-81
2022/12/09 04:32:13;;;;;;;30.48;15.55;;;;;;;5.97;83.08;95076.94;5050324;28;20545;-82
2022/12/09 04:34:38;;;;;;;38.20;19.63;;;;;;;5.67;83.00;95025.53;5032186;28;20045;-81
2022/12/09 04:37:03;;;;;;;46.33;23.70;;;;;;;5.72;83.11;95017.69;5032574;28;20773;-81
2022/12/09 04:39:29;;;;;;;45.60;21.77;;;;;;;6.34;82.82;95104.19;5049677;28;20506;-82
2022/12/09 04:41:55;;;;;;;40.75;21.08;;;;;;;6.16;82.72;95063.22;5049943;28;20112;-81
2022/12/09 04:44:20;;;;;;;48.78;20.77;;;;;;;6.19;82.68;95059.28;5032172;28;20044;-81
2022/12/09 04:46:46;;;;;;;37.55;19.58;;;;;;;5.82;82.81;95007.28;5032332;28;20551;-81
2022/12/09 04:49:11;;;;;;;43.20;24.05;;;;;;;6.15;82.48;95058.19;5032423;28;20522;-82
2022/12/09 04:51:37;;;;;;;50.35;25.15;;;;;;;6.22;82.68;95058.00;5032466;28;20032;-82
2022/12/09 04:54:02;;;;;;;51.80;23.83;;;;;;;6.06;82.29;95051.78;5032278;28;20086;-81
2022/12/09 04:56:27;;;;;;;40.88;21.73;;;;;;;5.93;82.34;95025.84;5032277;28;20411;-81
2022/12/09 04:58:53;;;;;;;44.28;23.90;;;;;;;5.96;82.19;95054.31;5032042;28;20060;-82
2022/12/09 05:01:21;;;;;;;51.65;23.58;;;;;;;6.34;82.66;95121.84;5049951;28;20029;-82
2022/12/09 05:03:52;;;;;;;51.85;26.08;;;;;;;6.04;82.41;95054.66;5031886;28;20120;-81
2022/12/09 05:06:19;;;;;;;55.22;25.95;;;;;;;5.79;82.51;95010.44;5049969;28;20120;-82
2022/12/09 05:08:44;;;;;;;54.83;27.00;;;;;;;6.11;82.43;95057.09;5022227;28;20048;-82
2022/12/09 05:11:10;;;;;;;60.55;30.48;;;;;;;6.30;82.04;95094.41;5029037;28;20037;-82
2022/12/09 05:13:35;;;;;;;62.47;30.58;;;;;;;6.06;81.93;95071.00;5028462;28;20149;-81
2022/12/09 05:16:07;;;;;;;60.17;30.80;;;;;;;5.79;82.05;95020.97;5023777;28;20061;-81
2022/12/09 05:18:33;;;;;;;55.00;27.50;;;;;;;5.37;81.98;94964.69;5042085;28;20136;-82
2022/12/09 05:21:03;;;;;;;56.17;26.65;;;;;;;5.58;81.89;94986.75;5039218;28;20503;-82
2022/12/09 05:23:28;;;;;;;51.97;26.20;;;;;;;6.15;82.78;95076.63;5043339;28;20025;-82
2022/12/09 05:25:55;;;;;;;58.03;28.33;;;;;;;6.05;82.55;95072.03;5019163;28;20043;-82
2022/12/09 05:28:21;;;;;;;50.85;25.88;;;;;;;6.24;82.42;95083.06;5020899;28;20036;-82
2022/12/09 05:30:46;;;;;;;56.97;28.15;;;;;;;5.71;82.51;95010.88;5034353;28;20037;-82
2022/12/09 05:33:12;;;;;;;54.78;24.90;;;;;;;6.34;82.89;95112.09;5037206;28;20541;-81
2022/12/09 05:35:37;;;;;;;53.78;26.63;;;;;;;5.90;82.36;95031.59;5015098;28;20060;-82
2022/12/09 05:38:03;;;;;;;50.78;25.83;;;;;;;6.05;82.98;95121.28;5034981;28;20090;-82
2022/12/09 05:40:28;;;;;;;52.58;26.05;;;;;;;5.47;83.91;95041.09;5040001;28;20063;-82
2022/12/09 05:42:54;;;;;;;60.75;27.92;;;;;;;5.86;84.01;95091.81;5038610;28;20510;-83
2022/12/09 05:45:19;;;;;;;52.53;27.23;;;;;;;5.93;83.47;95097.72;5040352;28;20553;-82
2022/12/09 05:47:45;;;;;;;54.72;28.20;;;;;;;5.24;84.03;95020.28;5019736;28;20040;-82
2022/12/09 05:50:10;;;;;;;47.05;23.77;;;;;;;5.65;83.68;95056.56;5035676;28;20500;-81
2022/12/09 05:52:36;;;;;;;49.78;23.80;;;;;;;6.26;83.71;95132.81;5040689;28;20048;-82
2022/12/09 05:55:06;;;;;;;46.25;24.67;;;;;;;6.23;83.32;95120.16;5044057;28;20133;-83
2022/12/09 05:57:33;;;;;;;54.38;27.08;;;;;;;6.36;82.80;95127.66;5021302;28;20411;-82
2022/12/09 05:59:58;;;;;;;48.58;24.25;;;;;;;6.23;82.58;95107.00;5038605;28;20051;-83
2022/12/09 06:02:24;;;;;;;49.20;24.95;;;;;;;5.20;82.83;94927.16;5005093;28;20041;-82
2022/12/09 06:04:49;;;;;;;47.00;22.10;;;;;;;6.49;82.05;95127.25;5038820;28;20155;-86
2022/12/09 06:07:15;;;;;;;44.25;21.08;;;;;;;6.49;82.54;95135.16;5039284;28;20570;-82
2022/12/09 06:09:41;;;;;;;48.95;24.20;;;;;;;5.75;82.23;95003.25;5035559;28;20041;-82
2022/12/09 06:12:06;;;;;;;44.65;23.55;;;;;;;5.60;82.79;95017.03;5019406;28;20474;-82
2022/12/09 06:14:32;;;;;;;49.50;25.35;;;;;;;6.05;83.11;95076.50;5015605;28;20401;-83
2022/12/09 06:16:57;;;;;;;63.88;35.40;;;;;;;5.08;83.14;94897.59;5041033;28;20053;-84
2022/12/09 06:19:23;;;;;;;71.25;40.00;;;;;;;5.67;83.17;95014.22;5032520;28;20041;-84
2022/12/09 06:21:48;;;;;;;59.88;34.78;;;;;;;6.13;83.29;95076.06;5018171;28;20036;-83
2022/12/09 06:24:13;;;;;;;64.70;32.90;;;;;;;5.38;83.46;94988.13;5023810;28;20090;-84
2022/12/09 06:26:39;;;;;;;62.20;35.65;;;;;;;5.65;83.41;95013.66;5041045;28;20037;-86
2022/12/09 06:29:04;;;;;;;75.68;39.35;;;;;;;5.91;83.47;95052.41;5024097;28;20668;-84
2022/12/09 06:31:30;;;;;;;72.60;41.28;;;;;;;6.32;83.78;95122.13;5038367;28;20800;-84
2022/12/09 06:33:56;;;;;;;76.60;41.63;;;;;;;6.35;83.06;95145.31;5022838;28;20047;-87
2022/12/09 06:36:22;;;;;;;79.05;41.00;;;;;;;6.17;84.20;95159.63;5026143;28;20494;-84
2022/12/09 06:38:47;;;;;;;83.18;40.40;;;;;;;5.24;83.05;94997.44;5029289;28;20052;-86
2022/12/09 06:41:14;;;;;;;78.38;39.55;;;;;;;5.11;83.47;94973.34;5023482;28;20133;-84
2022/12/09 06:43:40;;;;;;;75.68;38.75;;;;;;;4.82;82.99;94956.91;5024518;28;20050;-84
2022/12/09 06:46:17;;;;;;;71.03;37.88;;;;;;;6.05;83.90;95135.22;5015948;28;20034;-85
2022/12/09 06:48:43;;;;;;;77.25;35.35;;;;;;;6.23;83.58;95154.41;5022919;28;20029;-84
2022/12/09 06:51:09;;;;;;;82.55;35.33;;;;;;;6.01;82.89;95122.81;5022288;28;20033;-85
2022/12/09 06:53:34;;;;;;;76.70;37.00;;;;;;;5.96;82.94;95096.41;5043814;28;20144;-84
2022/12/09 06:56:02;;;;;;;79.22;37.13;;;;;;;5.72;83.00;95064.28;5020282;28;20110;-86
2022/12/09 06:58:27;;;;;;;64.22;34.97;;;;;;;6.36;82.18;95167.19;5024576;28;20518;-86
2022/12/09 07:01:12;;;;;;;81.80;37.28;;;;;;;5.78;82.94;95056.22;5022039;28;20041;-91
2022/12/09 07:03:50;;;;;;;68.57;34.42;;;;;;;6.53;82.46;95176.59;5043514;28;20396;-91
2022/12/09 07:08:49;;;;;;;62.38;33.10;;;;;;;5.61;81.89;94970.50;5034665;28;20041;-84
2022/12/09 07:11:15;;;;;;;69.35;32.75;;;;;;;6.01;81.44;94999.09;5012952;28;20030;-84
2022/12/09 07:13:40;;;;;;;57.90;31.63;;;;;;;4.49;80.93;94759.00;5017746;28;20033;-81
2022/12/09 07:16:06;;;;;;;66.97;33.35;;;;;;;5.04;81.36;94842.88;5032236;28;20092;-82
2022/12/09 07:18:31;;;;;;;70.35;32.45;;;;;;;6.53;80.94;95120.47;5029570;28;20041;-81
2022/12/09 07:20:57;;;;;;;67.50;29.67;;;;;;;6.96;81.16;95174.88;5013719;28;20041;-82
2022/12/09 07:23:22;;;;;;;60.80;30.90;;;;;;;6.96;81.42;95161.69;5009889;28;20037;-82
2022/12/09 07:25:57;;;;;;;62.10;29.20;;;;;;;6.23;nan;95057.75;5023302;28;20033;-82
2022/12/09 07:28:23;;;;;;;65.10;31.75;;;;;;;6.35;81.65;95090.00;5014441;28;20037;-81
2022/12/09 07:30:48;;;;;;;61.95;30.50;;;;;;;6.36;82.19;95085.53;5016837;28;20075;-79
2022/12/09 07:33:14;;;;;;;69.18;31.95;;;;;;;6.81;81.98;95130.72;5032109;28;20033;-78
2022/12/09 07:35:39;;;;;;;69.22;31.77;;;;;;;6.67;81.88;95107.69;5023576;28;20059;-79
2022/12/09 07:38:04;;;;;;;69.43;29.55;;;;;;;6.44;81.69;95056.88;5010063;28;20045;-79
2022/12/09 07:40:30;;;;;;;66.20;30.70;;;;;;;6.70;82.32;95139.59;5010670;28;20029;-79
2022/12/09 07:42:55;;;;;;;68.45;31.10;;;;;;;6.77;83.06;95134.13;5025691;28;20029;-79
2022/12/09 07:45:21;;;;;;;72.75;31.83;;;;;;;6.50;83.51;95086.69;5026182;28;20042;-81
2022/12/09 07:47:46;;;;;;;70.28;32.05;;;;;;;6.72;83.19;95119.06;5016298;28;20033;-79
2022/12/09 07:50:12;;;;;;;87.13;35.10;;;;;;;6.43;83.08;95063.19;5024035;28;20104;-80
2022/12/09 07:52:42;;;;;;;67.07;31.25;;;;;;;5.92;82.54;94998.75;5020695;28;20121;-81
2022/12/09 07:55:11;;;;;;;65.65;30.73;;;;;;;5.05;82.97;94875.22;5015194;28;20033;-84
2022/12/09 07:57:43;;;;;;;74.15;31.15;;;;;;;4.32;82.43;94734.66;5008685;28;20079;-85
2022/12/09 08:00:09;;;;;;;74.32;31.70;;;;;;;6.30;82.97;95012.78;5028200;28;20057;-82
2022/12/09 08:02:34;;;;;;;61.08;28.08;;;;;;;6.17;82.18;94992.94;5026382;28;20066;-82
2022/12/09 08:05:00;;;;;;;72.57;28.30;;;;;;;7.03;81.66;95111.38;5032696;28;20060;-83
2022/12/09 08:07:26;;;;;;;61.25;30.05;;;;;;;7.33;81.61;95135.34;5029010;28;20408;-82
2022/12/09 08:09:54;;;;;;;62.38;27.42;;;;;;;7.14;81.97;95142.88;5015342;28;20097;-81
2022/12/09 08:12:20;;;;;;;121.00;44.75;;;;;;;7.02;82.33;95086.09;5020910;28;20178;-80
2022/12/09 08:14:46;;;;;;;71.85;30.63;;;;;;;6.25;82.08;95020.66;5002915;28;20132;-81
2022/12/09 08:17:11;;;;;;;73.50;29.05;;;;;;;4.73;82.50;94735.88;5026393;28;20081;-82
2022/12/09 08:19:37;;;;;;;73.35;25.48;;;;;;;4.44;82.54;94688.03;5027550;28;20052;-81
2022/12/09 08:22:02;;;;;;;70.80;26.27;;;;;;;7.40;82.40;95166.81;5009998;28;20043;-81
2022/12/09 08:24:27;;;;;;;90.68;42.83;;;;;;;7.26;82.49;95167.22;5024646;28;20048;-83
2022/12/09 08:26:53;;;;;;;93.10;47.30;;;;;;;5.75;82.08;94940.91;5004786;28;20034;-83
2022/12/09 08:29:19;;;;;;;81.93;44.42;;;;;;;6.10;81.44;94997.59;5026886;28;20022;-83
2022/12/09 08:31:44;;;;;;;104.60;48.40;;;;;;;6.49;82.02;95011.34;5015897;28;20029;-82
2022/12/09 08:34:10;;;;;;;119.38;52.30;;;;;;;6.10;81.87;94972.03;5013107;28;20037;-82
2022/12/09 08:36:36;;;;;;;101.55;47.20;;;;;;;4.81;81.35;94748.56;5030234;28;20026;-83
2022/12/09 08:39:02;;;;;;;100.82;43.58;;;;;;;5.99;81.14;94930.09;5026278;28;20029;-83
2022/12/09 08:41:36;;;;;;;98.50;44.47;;;;;;;7.82;81.28;95154.38;5025546;28;20151;-84
2022/12/09 08:44:14;;;;;;;77.15;41.63;;;;;;;7.92;80.89;95141.25;5028665;28;20088;-86
2022/12/09 08:46:46;;;;;;;91.13;41.70;;;;;;;7.86;81.62;95155.44;5026326;28;20021;-84
2022/12/09 08:49:24;;;;;;;118.65;48.42;;;;;;;7.78;81.14;95142.75;5019273;28;20030;-83
2022/12/09 08:51:51;;;;;;;103.50;51.13;;;;;;;6.29;80.87;94926.91;5014054;28;20585;-84
2022/12/09 08:54:17;;;;;;;132.02;51.15;;;;;;;6.41;81.06;94956.50;5026421;28;20037;-84
2022/12/09 08:56:47;;;;;;;100.18;50.28;;;;;;;7.06;80.29;95052.88;5030477;28;20033;-83
2022/12/09 08:59:13;;;;;;;116.97;51.92;;;;;;;6.70;80.14;94912.16;5015875;28;20056;-84
2022/12/09 09:01:39;;;;;;;110.57;55.08;;;;;;;6.57;79.94;94877.31;5012802;28;20095;-85
2022/12/09 09:04:08;;;;;;;105.40;51.45;;;;;;;6.90;79.95;94920.19;5012686;28;20067;-83
2022/12/09 09:06:35;;;;;;;104.53;49.78;;;;;;;7.71;79.81;95031.31;5033439;28;20033;-83
2022/12/09 09:09:00;;;;;;;107.70;49.50;;;;;;;8.37;79.42;95087.00;5013695;28;20049;-83
2022/12/09 09:11:26;;;;;;;115.03;54.00;;;;;;;7.87;79.29;95003.09;5027511;28;20080;-82
2022/12/09 09:13:52;;;;;;;131.25;52.83;;;;;;;6.64;78.89;94795.38;5027797;28;20065;-82
2022/12/09 09:16:22;;;;;;;110.55;49.05;;;;;;;8.69;78.68;95073.56;5004800;28;20346;-82
2022/12/09 09:18:48;;;;;;;113.60;48.10;;;;;;;7.14;78.20;94863.31;5034651;28;20300;-89
2022/12/09 09:21:16;;;;;;;126.20;49.35;;;;;;;7.91;77.83;94949.53;5018905;23;20447;-85
2022/12/09 09:23:42;;;;;;;110.05;47.90;;;;;;;8.21;78.32;94983.13;5019362;28;20041;-84
2022/12/09 09:26:14;;;;;;;119.80;51.05;;;;;;;8.20;77.87;94984.16;5015061;28;20485;-84
2022/12/09 09:28:40;;;;;;;110.68;49.90;;;;;;;8.32;78.47;95007.72;5020929;28;20125;-86
2022/12/09 09:31:08;;;;;;;121.03;50.17;;;;;;;8.72;77.99;95078.31;5008552;28;20091;-86
2022/12/09 09:33:34;;;;;;;107.93;49.28;;;;;;;8.59;77.67;95073.56;5008904;28;20734;-86
2022/12/09 09:36:02;;;;;;;103.00;48.17;;;;;;;8.55;78.45;95052.13;5024662;28;20107;-84
2022/12/09 09:38:28;;;;;;;116.18;49.05;;;;;;;8.36;78.42;94977.88;5028804;28;20036;-84
2022/12/09 09:40:55;;;;;;;115.18;49.78;;;;;;;8.02;77.88;94910.72;5010152;28;20033;-86
2022/12/09 09:43:24;;;;;;;117.65;48.60;;;;;;;8.57;77.63;94983.16;5009686;28;20033;-86
2022/12/09 09:45:53;;;;;;;107.78;44.25;;;;;;;8.18;76.43;94900.94;5025111;28;20052;-86
2022/12/09 09:48:22;;;;;;;89.60;43.78;;;;;;;8.23;76.49;94871.91;5029527;28;20037;-87
2022/12/09 09:50:48;;;;;;;92.05;40.00;;;;;;;9.12;76.00;95030.69;5026283;28;20021;-85
2022/12/09 09:53:25;;;;;;;88.85;36.55;;;;;;;9.14;75.71;95043.66;5007902;28;20037;-83
2022/12/09 09:56:09;;;;;;;99.47;38.10;;;;;;;9.18;75.26;95024.31;5003322;28;20100;-85
2022/12/09 09:58:40;;;;;;;100.32;35.53;;;;;;;9.20;76.09;95032.78;5009933;28;20041;-86
2022/12/09 10:01:08;;;;;;;;;;;;;;;9.22;75.68;95025.38;5026269;28;20091;-85
2022/12/09 10:03:45;;;;;;;84.65;33.03;;;;;;;9.15;75.96;95011.66;5024082;28;20988;-86
2022/12/09 10:06:27;;;;;;;70.10;33.67;;;;;;;9.25;75.74;95006.31;5007550;28;20033;-87
2022/12/09 10:09:03;;;;;;;109.80;39.70;;;;;;;8.75;75.88;94900.66;5020014;28;21031;-87
2022/12/09 10:11:37;;;;;;;89.60;38.17;;;;;;;8.56;75.52;94881.13;5026390;28;20029;-88
2022/12/09 10:14:08;;;;;;;95.22;32.83;;;;;;;9.44;74.62;94995.16;5023697;28;20403;-87
2022/12/09 10:16:46;;;;;;;101.85;32.80;;;;;;;9.31;75.41;94987.78;5004820;28;20503;-86
2022/12/09 10:19:21;;;;;;;105.25;35.63;;;;;;;9.15;74.77;94958.75;5023872;28;20046;-87
2022/12/09 10:21:50;;;;;;;75.55;34.13;;;;;;;8.85;75.14;94872.31;5007768;28;20052;-85
2022/12/09 10:24:45;;;;;;;69.85;27.08;;;;;;;8.65;74.78;94896.16;5017306;28;20034;-87
2022/12/09 10:27:17;;;;;;;69.55;29.40;;;;;;;9.37;74.69;94965.53;5003384;28;20797;-86
2022/12/09 10:30:03;;;;;;;70.78;28.92;;;;;;;9.28;73.99;94931.69;5025239;28;20152;-87
2022/12/09 10:32:33;;;;;;;71.78;30.98;;;;;;;9.02;74.58;94879.94;5011389;28;20124;-88
2022/12/09 10:34:59;;;;;;;100.43;33.55;;;;;;;8.58;74.67;94818.22;5017559;28;20064;-90
2022/12/09 10:37:31;;;;;;;71.90;31.75;;;;;;;9.56;74.04;94948.78;5019763;28;20032;-88
2022/12/09 10:40:00;;;;;;;80.15;33.90;;;;;;;9.73;73.23;94955.56;5022708;28;20455;-89
2022/12/09 10:45:17;;;;;;;78.03;32.28;;;;;;;9.69;74.13;94942.06;5022179;28;20052;-87
2022/12/09 10:47:49;;;;;;;86.82;35.65;;;;;;;9.43;73.63;94906.22;5008577;28;20034;-88
2022/12/09 10:50:34;;;;;;;89.38;36.72;;;;;;;8.94;73.99;94832.09;5014006;28;20422;-87
2022/12/09 10:53:13;;;;;;;102.55;37.60;;;;;;;8.99;73.92;94842.66;5022534;28;20025;-89
2022/12/09 10:55:41;;;;;;;96.40;38.97;;;;;;;9.14;74.27;94851.31;5010326;28;20038;-85
2022/12/09 10:58:22;;;;;;;80.43;34.95;;;;;;;9.83;74.21;94955.53;5027326;28;20179;-86
2022/12/09 11:01:22;;;;;;;99.20;37.45;;;;;;;8.93;74.61;94815.44;5012689;28;20025;-85
2022/12/09 11:03:53;;;;;;;92.10;40.15;;;;;;;9.62;74.03;94920.41;4973166;28;20133;-84
2022/12/09 11:06:28;;;;;;;86.82;36.53;;;;;;;9.04;75.03;94846.06;5003662;28;20124;-89
2022/12/09 11:08:59;;;;;;;79.00;33.38;;;;;;;9.29;74.48;94896.25;5008204;28;20152;-87
2022/12/09 11:11:45;;;;;;;83.30;34.20;;;;;;;9.80;73.78;94929.56;5019545;28;20025;-85
2022/12/09 11:14:24;;;;;;;85.22;36.38;;;;;;;8.07;74.19;94652.72;5009875;28;20034;-86
2022/12/09 11:16:57;;;;;;;84.93;34.72;;;;;;;8.63;74.03;94744.16;5011730;28;20037;-86
2022/12/09 11:19:36;;;;;;;85.25;34.78;;;;;;;7.61;73.73;94564.97;5019895;28;20193;-90
2022/12/09 11:22:22;;;;;;;92.78;35.05;;;;;;;7.65;73.15;94563.34;5024951;28;20044;-87
2022/12/09 11:24:51;;;;;;;84.50;35.85;;;;;;;9.47;73.51;94818.03;5028790;28;20033;-86
2022/12/09 11:27:33;;;;;;;83.95;33.03;;;;;;;7.07;73.29;94424.31;5028827;28;20148;-86
2022/12/09 11:30:03;;;;;;;;;;;;;;;10.27;74.33;94899.88;5008105;28;20128;-85
2022/12/09 11:32:29;;;;;;;76.40;32.45;;;;;;;8.56;74.44;94667.81;5000895;28;20689;-84
2022/12/09 11:34:55;;;;;;;77.78;30.83;;;;;;;8.46;72.99;94570.13;5002631;28;20091;-85
2022/12/09 11:37:20;;;;;;;83.00;30.48;;;;;;;10.40;71.66;94892.06;5001585;28;20029;-84